Time;durP1;ratioP1;P1;durP2;ratioP2;P2;SDS_P1;SDS_P2;PMS_P1;PMS_P2;Temp;Humidity;BMP_temperature;BMP_pressure;BME280_temperature;BME280_humidity;BME280_pressure;Samples;Min_cycle;Max_cycle;Signal;HPM_P1;HPM_P2
2022/11/02 00:04:44;;;;;;;14.10;9.40;;;12.80;99.90;;;;;;10459994;28;20221;-81
2022/11/02 00:09:46;;;;;;;16.10;11.70;;;12.80;99.90;;;;;;10458015;28;20236;-82
2022/11/02 00:14:49;;;;;;;15.60;9.77;;;12.80;99.90;;;;;;10463124;28;20241;-80
2022/11/02 00:19:51;;;;;;;5.30;4.80;;;12.80;99.90;;;;;;10434197;28;20224;-81
2022/11/02 00:24:53;;;;;;;8.30;5.63;;;12.80;99.90;;;;;;10440109;28;20233;-82
2022/11/02 00:29:57;;;;;;;5.10;3.20;;;12.80;99.90;;;;;;10453216;28;20535;-82
2022/11/02 00:34:59;;;;;;;4.73;4.30;;;12.80;99.90;;;;;;10439118;28;20225;-81
2022/11/02 00:40:01;;;;;;;6.13;4.17;;;12.80;99.90;;;;;;10438953;28;20216;-81
2022/11/02 00:45:06;;;;;;;3.73;3.43;;;12.80;99.90;;;;;;10439766;28;20272;-81
2022/11/02 00:50:10;;;;;;;6.90;4.03;;;12.80;99.90;;;;;;10464775;28;20194;-82
2022/11/02 00:55:14;;;;;;;5.73;3.80;;;12.80;99.90;;;;;;10420352;28;20218;-80
2022/11/02 01:00:20;;;;;;;5.53;4.00;;;12.80;99.90;;;;;;10461379;28;20581;-81
2022/11/02 01:05:22;;;;;;;4.53;4.00;;;12.80;99.90;;;;;;10437827;28;20225;-82
2022/11/02 01:10:25;;;;;;;5.40;3.60;;;12.80;99.90;;;;;;10446225;28;20197;-82
2022/11/02 01:15:28;;;;;;;5.10;3.90;;;12.90;99.90;;;;;;10444736;22;20222;-80
2022/11/02 01:20:30;;;;;;;4.57;3.90;;;12.90;99.90;;;;;;10379889;28;20218;-81
2022/11/02 01:25:32;;;;;;;6.50;4.40;;;12.90;99.90;;;;;;10359972;28;20245;-81
2022/11/02 01:30:38;;;;;;;7.33;4.37;;;12.90;99.90;;;;;;10380800;28;20569;-82
2022/11/02 01:35:41;;;;;;;4.13;3.43;;;13.00;99.90;;;;;;10367742;28;20215;-82
2022/11/02 01:40:43;;;;;;;4.40;3.90;;;13.00;99.90;;;;;;10383487;28;20222;-82
2022/11/02 01:45:47;;;;;;;4.50;3.87;;;13.10;99.90;;;;;;10384510;28;20289;-82
2022/11/02 01:50:49;;;;;;;6.23;4.10;;;13.10;99.90;;;;;;10382444;28;20218;-81
2022/11/02 01:55:52;;;;;;;4.50;4.10;;;13.20;99.90;;;;;;10381561;28;20581;-81
2022/11/02 02:00:56;;;;;;;4.60;3.87;;;13.20;99.90;;;;;;10357642;28;20578;-81
2022/11/02 02:06:02;;;;;;;5.00;4.20;;;13.20;99.90;;;;;;10374499;28;20241;-82
2022/11/02 02:11:27;;;;;;;4.80;4.33;;;13.30;99.90;;;;;;10363770;28;20191;-81
2022/11/02 02:16:49;;;;;;;4.57;4.17;;;13.30;99.90;;;;;;10364599;28;20207;-81
2022/11/02 02:22:07;;;;;;;4.40;4.00;;;13.40;99.90;;;;;;10357750;28;20218;-81
2022/11/02 02:27:15;;;;;;;7.97;4.33;;;13.40;99.90;;;;;;10373588;28;20654;-82
2022/11/02 02:32:25;;;;;;;4.43;3.67;;;13.40;99.90;;;;;;10357252;28;20223;-81
2022/11/02 02:37:36;;;;;;;4.73;3.77;;;13.40;99.90;;;;;;10359006;28;20198;-82
2022/11/02 02:42:43;;;;;;;7.63;4.40;;;13.40;99.90;;;;;;10374756;28;20768;-81
2022/11/02 02:48:00;;;;;;;6.70;4.50;;;13.40;99.90;;;;;;10355803;28;20226;-80
2022/11/02 02:53:06;;;;;;;6.57;4.13;;;13.40;99.90;;;;;;10376851;28;20214;-82
2022/11/02 02:58:16;;;;;;;4.13;3.73;;;13.40;99.90;;;;;;10373087;28;20348;-79
2022/11/02 03:03:22;;;;;;;5.70;3.67;;;13.40;99.90;;;;;;10355452;28;20317;-81
2022/11/02 03:08:24;;;;;;;4.80;4.27;;;13.40;99.90;;;;;;10356275;28;20229;-80
2022/11/02 03:13:42;;;;;;;6.70;4.00;;;13.40;99.90;;;;;;10374809;28;20256;-80
2022/11/02 03:18:53;;;;;;;4.00;3.70;;;13.40;99.90;;;;;;10358553;28;20204;-80
2022/11/02 03:24:00;;;;;;;9.20;4.17;;;13.40;99.90;;;;;;10372753;28;20309;-80
2022/11/02 03:29:09;;;;;;;5.40;3.80;;;13.40;99.90;;;;;;10371479;28;20198;-80
2022/11/02 03:34:21;;;;;;;6.20;3.57;;;13.50;99.90;;;;;;10373339;28;20214;-80
2022/11/02 03:39:29;;;;;;;7.17;3.70;;;13.50;99.90;;;;;;10374942;28;20637;-80
2022/11/02 03:44:35;;;;;;;4.10;3.73;;;13.60;99.90;;;;;;10371985;28;20595;-80
2022/11/02 03:49:42;;;;;;;7.27;3.60;;;13.60;99.90;;;;;;10373771;28;20190;-80
2022/11/02 03:54:48;;;;;;;5.20;3.50;;;13.70;99.90;;;;;;10373902;28;20215;-80
2022/11/02 03:59:50;;;;;;;4.13;3.50;;;13.70;99.90;;;;;;10373132;28;20593;-81
2022/11/02 04:04:54;;;;;;;5.80;3.90;;;13.70;99.90;;;;;;10357287;28;20313;-82
2022/11/02 04:09:59;;;;;;;2.80;2.13;;;13.80;99.90;;;;;;10361861;28;20198;-81
2022/11/02 04:15:01;;;;;;;4.40;3.60;;;13.80;99.90;;;;;;10366365;28;20231;-80
2022/11/02 04:20:06;;;;;;;7.20;3.80;;;13.80;99.90;;;;;;10385287;28;20214;-82
2022/11/02 04:25:17;;;;;;;5.40;3.20;;;13.90;99.90;;;;;;10384242;28;20276;-81
2022/11/02 04:30:45;;;;;;;7.30;4.90;;;13.90;99.90;;;;;;10382257;28;20344;-79
2022/11/02 04:35:49;;;;;;;5.33;4.20;;;13.90;99.90;;;;;;10377348;28;20265;-79
2022/11/02 04:41:40;;;;;;;7.70;4.63;;;13.80;99.90;;;;;;10360977;28;20702;-83
2022/11/02 04:46:14;;;;;;;4.70;4.27;;;13.80;99.90;;;;;;10352907;28;20196;-83
2022/11/02 04:51:20;;;;;;;4.63;4.20;;;13.70;99.90;;;;;;10339105;28;20281;-79
2022/11/02 04:56:23;;;;;;;5.07;4.57;;;13.70;99.90;;;;;;10360314;28;20203;-80
2022/11/02 05:01:27;;;;;;;5.00;4.37;;;13.60;99.90;;;;;;10356928;28;20313;-80
2022/11/02 05:06:30;;;;;;;4.33;3.93;;;13.60;99.90;;;;;;10378356;28;20218;-81
2022/11/02 05:11:33;;;;;;;6.30;4.73;;;13.60;99.90;;;;;;10379548;28;20641;-80
2022/11/02 05:16:36;;;;;;;5.70;3.13;;;13.50;99.90;;;;;;10378346;28;20245;-80
2022/11/02 05:21:40;;;;;;;9.40;5.20;;;13.50;99.90;;;;;;10330531;28;20292;-80
2022/11/02 05:26:43;;;;;;;7.57;4.30;;;13.40;99.90;;;;;;10361301;28;20194;-81
2022/11/02 05:31:45;;;;;;;4.87;3.97;;;13.40;99.90;;;;;;10381410;28;20206;-82
2022/11/02 05:36:49;;;;;;;5.90;4.37;;;13.40;99.90;;;;;;10378495;28;20609;-82
2022/11/02 05:41:51;;;;;;;8.37;4.07;;;13.50;99.90;;;;;;10379599;28;20608;-81
2022/11/02 05:46:54;;;;;;;7.73;4.53;;;13.50;99.90;;;;;;10375775;28;20681;-81
2022/11/02 05:51:57;;;;;;;7.27;4.30;;;13.50;99.90;;;;;;10376163;28;20687;-81
2022/11/02 05:56:59;;;;;;;6.23;3.97;;;13.50;99.90;;;;;;10360616;28;20777;-81
2022/11/02 06:02:01;;;;;;;7.60;3.67;;;13.40;99.90;;;;;;10378831;28;20312;-81
2022/11/02 06:07:05;;;;;;;4.67;3.70;;;13.50;99.90;;;;;;10373201;28;20253;-80
2022/11/02 06:12:07;;;;;;;6.43;3.50;;;13.50;99.90;;;;;;10374091;28;20305;-80
2022/11/02 06:17:09;;;;;;;5.07;4.20;;;13.50;99.90;;;;;;10343569;28;20250;-79
2022/11/02 06:22:13;;;;;;;7.63;4.30;;;13.50;99.90;;;;;;10327531;28;20230;-79
2022/11/02 06:27:15;;;;;;;5.93;4.67;;;13.50;99.90;;;;;;10369219;28;20630;-83
2022/11/02 06:32:18;;;;;;;4.03;3.63;;;13.60;99.90;;;;;;10355889;28;20218;-79
2022/11/02 06:37:22;;;;;;;6.20;3.87;;;13.60;99.90;;;;;;10374066;28;20671;-80
2022/11/02 06:42:24;;;;;;;5.20;3.97;;;13.70;99.90;;;;;;10373805;28;20694;-79
2022/11/02 06:47:32;;;;;;;7.27;4.13;;;13.80;99.90;;;;;;10317818;28;20551;-81
2022/11/02 06:52:42;;;;;;;7.00;4.03;;;13.80;99.90;;;;;;10334283;28;20579;-80
2022/11/02 06:57:44;;;;;;;6.73;4.33;;;13.90;99.90;;;;;;10318408;28;20573;-79
2022/11/02 07:02:58;;;;;;;4.93;4.53;;;14.00;99.90;;;;;;10311601;28;20223;-81
2022/11/02 07:08:02;;;;;;;7.70;3.83;;;14.10;99.90;;;;;;10321424;28;20215;-80
2022/11/02 07:13:04;;;;;;;4.40;4.00;;;14.20;99.90;;;;;;10399287;22;20307;-81
2022/11/02 07:18:07;;;;;;;5.80;3.50;;;14.20;99.90;;;;;;10479196;28;20192;-81
2022/11/02 07:23:10;;;;;;;5.00;4.53;;;14.30;99.90;;;;;;10465225;28;20226;-81
2022/11/02 07:28:12;;;;;;;6.57;5.23;;;14.40;99.90;;;;;;10437262;28;20185;-81
2022/11/02 07:33:14;;;;;;;6.13;4.60;;;14.40;99.90;;;;;;10436798;28;20331;-81
2022/11/02 07:38:18;;;;;;;5.90;2.80;;;14.60;99.90;;;;;;10437221;28;20519;-81
2022/11/02 07:43:20;;;;;;;7.30;4.37;;;14.70;99.90;;;;;;10440901;28;20260;-81
2022/11/02 07:48:29;;;;;;;6.43;4.77;;;14.80;99.90;;;;;;10445823;28;20193;-81
2022/11/02 07:53:33;;;;;;;9.43;4.80;;;14.90;99.90;;;;;;10446030;28;20243;-81
2022/11/02 07:58:35;;;;;;;4.30;3.10;;;14.90;99.90;;;;;;10429959;28;20194;-81
2022/11/02 08:03:37;;;;;;;6.63;4.23;;;15.00;99.90;;;;;;10442905;28;20221;-81
2022/11/02 08:08:40;;;;;;;9.13;4.13;;;15.00;99.90;;;;;;10447647;28;20217;-81
2022/11/02 08:13:42;;;;;;;5.77;3.77;;;15.00;99.90;;;;;;10448286;28;20221;-81
2022/11/02 08:18:44;;;;;;;6.27;4.37;;;15.10;99.90;;;;;;10450039;28;20185;-81
2022/11/02 08:23:47;;;;;;;5.00;3.87;;;15.20;99.90;;;;;;10446267;28;20217;-81
2022/11/02 08:28:50;;;;;;;7.60;4.00;;;15.30;99.90;;;;;;10445326;28;20288;-81
2022/11/02 08:33:52;;;;;;;3.93;3.50;;;15.40;99.90;;;;;;10441594;28;20215;-81
2022/11/02 08:38:56;;;;;;;7.37;3.30;;;15.50;99.90;;;;;;10445583;28;20209;-81
2022/11/02 08:43:58;;;;;;;5.00;4.10;;;15.60;99.90;;;;;;10457646;28;20244;-81
2022/11/02 08:49:00;;;;;;;6.30;4.00;;;15.70;99.90;;;;;;10475537;28;20228;-81
2022/11/02 08:54:04;;;;;;;7.00;5.30;;;15.70;99.90;;;;;;10460904;28;20221;-80
2022/11/02 08:59:06;;;;;;;8.23;5.20;;;15.80;99.90;;;;;;10454666;28;20193;-80
2022/11/02 09:04:08;;;;;;;5.03;4.50;;;15.90;99.90;;;;;;10415441;28;20249;-82
2022/11/02 09:09:12;;;;;;;4.83;3.70;;;16.00;99.90;;;;;;10458438;28;20271;-81
2022/11/02 09:14:14;;;;;;;5.60;4.00;;;16.10;99.90;;;;;;10436671;28;20222;-82
2022/11/02 09:19:16;;;;;;;4.83;3.30;;;16.10;99.90;;;;;;10455586;28;20224;-82
2022/11/02 09:24:19;;;;;;;4.53;3.77;;;16.20;99.90;;;;;;10434917;28;20221;-82
2022/11/02 09:29:21;;;;;;;4.93;3.43;;;16.20;99.90;;;;;;10455594;28;20235;-82
2022/11/02 09:34:23;;;;;;;5.13;3.23;;;16.20;99.90;;;;;;10439576;28;20217;-82
2022/11/02 09:39:27;;;;;;;7.57;3.90;;;16.30;99.90;;;;;;10438406;28;20202;-82
2022/11/02 09:44:39;;;;;;;5.70;3.63;;;16.40;99.90;;;;;;10453890;28;20248;-82
2022/11/02 09:49:42;;;;;;;7.00;3.43;;;16.40;99.90;;;;;;10437507;28;20654;-80
2022/11/02 09:54:50;;;;;;;7.90;4.73;;;16.40;99.90;;;;;;10471272;28;20704;-82
2022/11/02 09:59:52;;;;;;;6.40;3.77;;;16.50;99.90;;;;;;10446644;28;20221;-79
2022/11/02 10:05:18;;;;;;;10.20;4.07;;;16.60;99.90;;;;;;10461081;28;20229;-79
2022/11/02 10:10:31;;;;;;;5.67;5.07;;;16.60;99.90;;;;;;10421128;28;20705;-82
2022/11/02 10:15:39;;;;;;;5.57;5.03;;;16.70;99.90;;;;;;10409693;28;1090441;-80
2022/11/02 10:20:45;;;;;;;6.00;4.93;;;16.80;99.90;;;;;;10448767;28;20279;-80
2022/11/02 10:25:49;;;;;;;5.20;4.80;;;16.80;99.90;;;;;;10465802;28;20227;-80
2022/11/02 10:30:53;;;;;;;6.77;5.33;;;16.90;99.90;;;;;;10482815;28;20189;-80
2022/11/02 10:36:14;;;;;;;8.90;4.10;;;16.90;99.90;;;;;;10442079;28;20588;-80
2022/11/02 10:41:39;;;;;;;5.63;4.60;;;17.00;99.90;;;;;;10442570;28;20270;-80
2022/11/02 10:46:53;;;;;;;6.07;4.17;;;17.00;99.90;;;;;;10439243;28;20232;-80
2022/11/02 10:51:55;;;;;;;4.80;4.40;;;16.90;99.90;;;;;;10445164;28;20209;-79
2022/11/02 10:56:59;;;;;;;5.17;4.30;;;16.90;99.90;;;;;;10438935;28;20249;-79
2022/11/02 11:02:10;;;;;;;5.17;4.37;;;16.80;99.90;;;;;;10439374;28;20688;-79
2022/11/02 11:07:16;;;;;;;5.50;5.00;;;16.70;99.90;;;;;;10440421;28;20197;-79
2022/11/02 11:12:25;;;;;;;7.70;4.60;;;16.70;99.90;;;;;;10424669;28;20267;-79
2022/11/02 11:17:31;;;;;;;14.70;5.07;;;16.70;99.90;;;;;;10457547;28;20202;-79
2022/11/02 11:22:36;;;;;;;6.67;5.47;;;16.80;99.90;;;;;;10449285;28;20231;-79
2022/11/02 11:27:45;;;;;;;3.70;3.30;;;16.80;99.90;;;;;;10457300;28;20198;-82
2022/11/02 11:32:48;;;;;;;7.97;5.70;;;16.70;99.90;;;;;;10460900;28;20569;-80
2022/11/02 11:37:53;;;;;;;6.40;5.03;;;16.70;99.90;;;;;;10453367;28;20227;-79
2022/11/02 11:42:57;;;;;;;5.13;4.23;;;16.60;99.90;;;;;;10449067;28;20635;-79
2022/11/02 11:48:04;;;;;;;11.77;5.70;;;16.50;99.90;;;;;;10478251;28;20220;-80
2022/11/02 11:53:23;;;;;;;6.23;5.50;;;16.50;99.90;;;;;;10466668;28;20693;-80
2022/11/02 11:58:28;;;;;;;7.43;5.07;;;16.40;99.90;;;;;;10442147;28;20444;-79
2022/11/02 12:03:30;;;;;;;7.87;4.90;;;16.30;99.90;;;;;;10452110;28;20225;-80
2022/11/02 12:08:48;;;;;;;7.73;5.00;;;16.30;99.90;;;;;;10444733;28;20626;-80
2022/11/02 12:14:12;;;;;;;8.10;5.40;;;16.40;99.90;;;;;;10460767;28;20286;-80
2022/11/02 12:19:26;;;;;;;9.07;5.87;;;16.50;99.90;;;;;;10461978;28;20194;-82
2022/11/02 12:25:10;;;;;;;6.00;4.70;;;16.40;99.90;;;;;;10461582;28;20229;-79
2022/11/02 12:30:18;;;;;;;5.07;4.63;;;16.40;99.90;;;;;;10442066;28;20292;-79
2022/11/02 12:35:32;;;;;;;9.83;5.47;;;16.30;99.90;;;;;;10466856;28;20233;-79
2022/11/02 12:40:50;;;;;;;10.40;4.63;;;16.20;99.90;;;;;;10451752;28;20566;-79
2022/11/02 12:46:00;;;;;;;5.90;5.30;;;16.10;99.90;;;;;;10469527;28;20235;-79
2022/11/02 12:51:08;;;;;;;6.57;5.20;;;16.10;99.90;;;;;;10475282;28;20668;-79
2022/11/02 12:56:17;;;;;;;5.53;4.70;;;16.10;99.90;;;;;;10471304;28;20236;-79
2022/11/02 13:01:26;;;;;;;7.33;4.03;;;16.10;99.90;;;;;;10467215;28;20715;-82
2022/11/02 13:06:33;;;;;;;5.23;3.90;;;16.10;99.90;;;;;;10469143;28;20193;-79
2022/11/02 13:11:39;;;;;;;5.23;3.90;;;16.10;99.90;;;;;;10469267;28;20201;-80
2022/11/02 13:16:48;;;;;;;6.30;4.10;;;16.00;99.90;;;;;;10462026;28;20213;-79
2022/11/02 13:21:54;;;;;;;7.03;4.07;;;16.00;99.90;;;;;;10446932;28;20228;-79
2022/11/02 13:27:00;;;;;;;5.50;3.87;;;16.10;99.90;;;;;;10465760;28;20205;-79
2022/11/02 13:32:10;;;;;;;5.87;3.87;;;16.10;99.90;;;;;;10454488;28;20240;-79
2022/11/02 13:37:17;;;;;;;7.90;4.50;;;16.00;99.90;;;;;;10462308;28;20617;-80
2022/11/02 13:42:52;;;;;;;7.50;4.70;;;16.00;99.90;;;;;;10461367;28;20637;-79
2022/11/02 13:48:27;;;;;;;8.10;4.70;;;15.90;99.90;;;;;;10459997;28;20193;-79
2022/11/02 13:53:35;;;;;;;5.27;4.23;;;15.90;99.90;;;;;;10439536;28;20302;-79
2022/11/02 13:58:41;;;;;;;5.53;3.33;;;15.80;99.90;;;;;;10452259;28;20205;-80
2022/11/02 14:03:49;;;;;;;6.00;3.43;;;15.80;99.90;;;;;;10458805;28;20224;-79
2022/11/02 14:08:55;;;;;;;7.30;3.67;;;15.80;99.90;;;;;;10458989;28;20579;-79
2022/11/02 14:14:16;;;;;;;11.20;5.00;;;15.80;99.90;;;;;;10461138;28;20311;-79
2022/11/02 14:19:25;;;;;;;7.90;4.73;;;15.80;99.90;;;;;;10458636;28;20561;-79
2022/11/02 14:25:07;;;;;;;10.50;5.50;;;15.80;99.90;;;;;;10458501;28;20225;-79
2022/11/02 14:30:42;;;;;;;11.30;4.30;;;15.80;99.90;;;;;;10447619;28;20198;-79
2022/11/02 14:35:53;;;;;;;8.27;6.43;;;15.90;99.90;;;;;;10454008;28;20235;-79
2022/11/02 14:41:05;;;;;;;7.63;5.37;;;15.90;99.90;;;;;;10433815;28;20328;-79
2022/11/02 14:46:15;;;;;;;8.50;5.37;;;15.90;99.90;;;;;;10445698;28;20245;-79
2022/11/02 14:51:22;;;;;;;9.63;5.47;;;15.90;99.90;;;;;;10422583;28;20194;-81
2022/11/02 14:56:45;;;;;;;6.80;5.17;;;15.90;99.90;;;;;;10426148;28;20277;-80
2022/11/02 15:01:53;;;;;;;9.13;5.20;;;15.90;99.90;;;;;;10464441;28;20267;-80
2022/11/02 15:06:59;;;;;;;10.47;5.97;;;15.90;99.90;;;;;;10430382;28;20676;-80
2022/11/02 15:12:21;;;;;;;9.17;5.90;;;15.90;99.90;;;;;;10462739;28;20244;-80
2022/11/02 15:17:52;;;;;;;7.40;5.17;;;15.80;99.90;;;;;;10415878;28;20193;-79
2022/11/02 15:23:00;;;;;;;8.53;5.03;;;15.80;99.90;;;;;;10457500;28;20618;-79
2022/11/02 15:28:07;;;;;;;7.13;4.20;;;15.70;99.90;;;;;;10432886;28;20219;-79
2022/11/02 15:33:17;;;;;;;10.47;5.97;;;15.60;99.90;;;;;;10452635;28;20210;-79
2022/11/02 15:38:25;;;;;;;9.03;5.70;;;15.50;99.90;;;;;;10443149;28;20190;-82
2022/11/02 15:43:46;;;;;;;9.43;5.43;;;15.50;99.90;;;;;;10450719;28;20283;-79
2022/11/02 15:48:56;;;;;;;9.23;6.87;;;15.30;99.90;;;;;;10447440;28;20198;-79
2022/11/02 15:54:16;;;;;;;8.53;6.90;;;15.10;99.90;;;;;;10437533;28;20224;-79
2022/11/02 15:59:44;;;;;;;14.80;7.07;;;15.00;99.90;;;;;;10446882;28;20704;-79
2022/11/02 16:04:47;;;;;;;8.63;7.10;;;14.90;99.90;;;;;;10445681;28;20711;-79
2022/11/02 16:09:51;;;;;;;8.87;6.77;;;14.70;99.90;;;;;;10452195;28;20209;-79
2022/11/02 16:14:56;;;;;;;13.37;6.20;;;14.70;99.90;;;;;;10448927;28;20217;-79
2022/11/02 16:20:10;;;;;;;10.60;7.10;;;14.60;99.90;;;;;;10449784;28;20193;-81
2022/11/02 16:25:19;;;;;;;7.50;6.03;;;14.50;99.90;;;;;;10445563;28;20612;-81
2022/11/02 16:30:22;;;;;;;7.63;6.80;;;14.40;99.90;;;;;;10450380;28;20201;-81
2022/11/02 16:35:26;;;;;;;19.53;13.07;;;14.30;99.90;;;;;;10438083;28;20228;-81
2022/11/02 16:40:38;;;;;;;10.50;9.40;;;14.20;99.90;;;;;;10450866;28;20193;-79
2022/11/02 16:45:42;;;;;;;15.30;9.47;;;14.20;99.90;;;;;;10443442;28;20229;-80
2022/11/02 16:51:00;;;;;;;13.70;7.53;;;14.10;99.90;;;;;;10458840;28;20204;-82
2022/11/02 16:56:26;;;;;;;10.70;8.13;;;14.00;99.90;;;;;;10468987;28;20270;-82
2022/11/02 17:01:35;;;;;;;10.47;6.80;;;13.90;99.90;;;;;;10461891;28;20220;-81
2022/11/02 17:06:40;;;;;;;13.10;7.47;;;13.80;99.90;;;;;;10453938;28;20280;-82
2022/11/02 17:11:44;;;;;;;13.80;7.57;;;13.70;99.90;;;;;;10445778;28;20654;-82
2022/11/02 17:17:05;;;;;;;21.53;13.60;;;13.60;99.90;;;;;;10444935;28;20621;-81
2022/11/02 17:22:12;;;;;;;17.33;12.17;;;13.60;99.90;;;;;;10463318;28;20219;-82
2022/11/02 17:27:24;;;;;;;11.30;6.30;;;13.50;99.90;;;;;;10443724;28;20248;-83
2022/11/02 17:32:26;;;;;;;10.43;7.03;;;13.50;99.90;;;;;;10468266;28;20421;-80
2022/11/02 17:37:31;;;;;;;8.33;7.53;;;13.50;99.90;;;;;;10437700;28;20729;-82
2022/11/02 17:47:56;;;;;;;13.57;8.93;;;13.40;99.90;;;;;;10433058;28;20675;-82
2022/11/02 17:52:59;;;;;;;14.13;10.10;;;13.30;99.90;;;;;;10459836;28;20339;-81
2022/11/02 17:58:05;;;;;;;12.03;8.27;;;13.20;99.90;;;;;;10436223;28;20194;-81
2022/11/02 18:03:14;;;;;;;15.13;9.73;;;13.20;99.90;;;;;;10446852;28;20636;-81
2022/11/02 18:08:16;;;;;;;15.43;8.50;;;13.20;99.90;;;;;;10452983;28;20193;-82
2022/11/02 18:13:21;;;;;;;17.07;8.40;;;13.10;99.90;;;;;;10427743;28;20591;-82
2022/11/02 18:18:23;;;;;;;12.03;7.50;;;13.10;99.90;;;;;;10433953;28;20201;-83
2022/11/02 18:23:25;;;;;;;21.40;14.37;;;13.00;99.90;;;;;;10437215;28;20218;-83
2022/11/02 18:28:28;;;;;;;16.10;9.33;;;12.90;99.90;;;;;;10439993;28;20198;-81
2022/11/02 18:33:30;;;;;;;22.07;10.90;;;12.90;99.90;;;;;;10433184;28;20594;-81
2022/11/02 18:38:33;;;;;;;14.73;8.40;;;12.90;99.90;;;;;;10444806;28;20197;-81
2022/11/02 18:43:36;;;;;;;10.87;7.90;;;12.80;99.90;;;;;;10444535;28;20217;-81
2022/11/02 18:48:38;;;;;;;12.40;8.80;;;12.70;99.90;;;;;;10448945;28;20288;-82
2022/11/02 18:53:40;;;;;;;14.73;12.40;;;12.70;99.90;;;;;;10436147;28;20217;-82
2022/11/02 18:58:47;;;;;;;14.03;10.70;;;12.70;99.90;;;;;;10459757;28;20217;-82
2022/11/02 19:03:50;;;;;;;12.53;8.17;;;12.80;99.90;;;;;;10440027;28;20222;-81
2022/11/02 19:14:13;;;;;;;7.47;6.77;;;12.80;99.90;;;;;;10454556;28;20214;-81
2022/11/02 19:19:15;;;;;;;15.10;9.77;;;12.90;99.90;;;;;;10426265;28;20225;-83
2022/11/02 19:24:19;;;;;;;11.73;8.60;;;12.90;99.90;;;;;;10433176;28;20221;-80
2022/11/02 19:29:23;;;;;;;11.60;7.83;;;12.90;99.90;;;;;;10451723;28;20634;-81
2022/11/02 19:34:25;;;;;;;18.17;10.03;;;12.90;99.90;;;;;;10433003;28;20236;-80
2022/11/02 19:39:27;;;;;;;9.77;6.60;;;12.90;99.90;;;;;;10412466;28;20241;-83
2022/11/02 19:44:31;;;;;;;11.17;7.70;;;12.90;99.90;;;;;;10461823;28;20750;-81
2022/11/02 19:49:33;;;;;;;11.53;7.83;;;12.90;99.90;;;;;;10452255;28;20212;-81
2022/11/02 19:54:35;;;;;;;10.87;6.70;;;12.80;99.90;;;;;;10459516;28;20219;-82
2022/11/02 19:59:38;;;;;;;9.43;7.60;;;12.70;99.90;;;;;;10468732;28;20599;-81
2022/11/02 20:04:40;;;;;;;12.20;8.80;;;12.70;99.90;;;;;;10439950;28;20244;-81
2022/11/02 20:09:43;;;;;;;11.70;9.43;;;12.60;99.90;;;;;;10426807;28;20205;-80
2022/11/02 20:14:47;;;;;;;11.57;8.50;;;12.60;99.90;;;;;;10442020;28;20228;-80
2022/11/02 20:19:49;;;;;;;19.50;9.07;;;12.50;99.90;;;;;;10438118;28;20212;-81
2022/11/02 20:24:51;;;;;;;14.33;9.77;;;12.50;99.90;;;;;;10432514;28;20248;-80
2022/11/02 20:29:54;;;;;;;12.40;9.53;;;12.40;99.90;;;;;;10435321;28;20202;-80
2022/11/02 20:34:56;;;;;;;9.90;8.70;;;12.40;99.90;;;;;;10444292;28;20216;-82
2022/11/02 20:39:58;;;;;;;13.00;10.40;;;12.30;99.90;;;;;;10445004;28;20193;-80
2022/11/02 20:45:02;;;;;;;11.17;9.27;;;12.20;99.90;;;;;;10442620;28;20649;-80
2022/11/02 20:50:04;;;;;;;10.17;8.73;;;12.20;99.90;;;;;;10452748;28;20213;-82
2022/11/02 20:55:07;;;;;;;12.00;8.97;;;12.10;99.90;;;;;;10434495;28;20205;-80
2022/11/02 21:00:12;;;;;;;10.50;8.80;;;12.10;99.90;;;;;;10445449;28;20244;-81
2022/11/02 21:05:15;;;;;;;9.60;8.70;;;12.10;99.90;;;;;;10451227;28;20239;-81
2022/11/02 21:10:18;;;;;;;13.00;10.90;;;12.10;99.90;;;;;;10463788;28;20212;-81
2022/11/02 21:15:21;;;;;;;15.67;10.90;;;12.10;99.90;;;;;;10460453;28;20229;-82
2022/11/02 21:20:23;;;;;;;18.43;8.20;;;12.10;99.90;;;;;;10456552;28;20617;-81
2022/11/02 21:25:26;;;;;;;7.80;7.10;;;12.10;99.90;;;;;;10448406;28;20221;-81
2022/11/02 21:30:30;;;;;;;10.67;8.10;;;12.10;99.90;;;;;;10434951;28;20189;-81
2022/11/02 21:35:32;;;;;;;9.70;7.03;;;12.00;99.90;;;;;;10457071;28;20212;-82
2022/11/02 21:40:35;;;;;;;10.80;8.57;;;12.10;99.90;;;;;;10457237;28;20232;-83
2022/11/02 21:45:38;;;;;;;9.30;8.13;;;12.00;99.90;;;;;;10448943;28;20279;-81
2022/11/02 21:50:40;;;;;;;10.73;8.57;;;12.00;99.90;;;;;;10446040;28;20198;-82
2022/11/02 21:55:42;;;;;;;9.53;8.53;;;12.00;99.90;;;;;;10474181;28;20595;-80
2022/11/02 22:06:06;;;;;;;13.03;10.77;;;11.90;99.90;;;;;;10457738;28;20225;-82
2022/11/02 22:11:10;;;;;;;10.47;7.90;;;11.90;99.90;;;;;;10456212;28;20300;-83
2022/11/02 22:16:16;;;;;;;9.43;7.40;;;11.80;99.90;;;;;;10451800;28;20229;-80
2022/11/02 22:21:19;;;;;;;12.50;7.97;;;11.80;99.90;;;;;;10471471;28;20196;-81
2022/11/02 22:26:23;;;;;;;9.30;7.97;;;11.80;99.90;;;;;;10457674;28;20285;-81
2022/11/02 22:31:28;;;;;;;9.13;7.10;;;11.90;99.90;;;;;;10450896;28;20193;-81
2022/11/02 22:36:32;;;;;;;8.43;6.23;;;11.80;99.90;;;;;;10441213;28;20558;-81
2022/11/02 22:41:35;;;;;;;9.93;7.37;;;11.90;99.90;;;;;;10458850;28;20661;-82
2022/11/02 22:46:40;;;;;;;8.93;8.03;;;11.80;99.90;;;;;;10451681;28;20249;-82
2022/11/02 22:51:44;;;;;;;9.20;7.60;;;11.80;99.90;;;;;;10460517;28;20656;-81
2022/11/02 22:56:48;;;;;;;8.90;8.00;;;11.80;99.90;;;;;;10460285;28;20198;-82
2022/11/02 23:01:51;;;;;;;15.53;9.70;;;11.80;99.90;;;;;;10468077;28;20220;-82
2022/11/02 23:06:53;;;;;;;21.07;13.50;;;11.70;99.90;;;;;;10469619;28;20219;-81
2022/11/02 23:11:55;;;;;;;11.00;7.00;;;11.70;99.90;;;;;;10445986;28;20694;-81
2022/11/02 23:16:58;;;;;;;8.83;6.70;;;11.70;99.90;;;;;;10447479;28;20685;-81
2022/11/02 23:27:22;;;;;;;9.37;6.87;;;11.70;99.90;;;;;;10450875;28;20201;-82
2022/11/02 23:32:27;;;;;;;7.43;6.30;;;11.70;99.90;;;;;;10432887;28;20206;-82
2022/11/02 23:37:29;;;;;;;10.70;8.93;;;11.60;99.90;;;;;;10447771;28;20201;-82
2022/11/02 23:42:32;;;;;;;11.37;8.43;;;11.60;99.90;;;;;;10469157;28;20585;-82
2022/11/02 23:58:14;;;;;;;8.60;7.33;;;11.60;99.90;;;;;;10422509;28;20193;-82
